Time;durP1;ratioP1;P1;durP2;ratioP2;P2;SDS_P1;SDS_P2;PMS_P1;PMS_P2;Temp;Humidity;BMP_temperature;BMP_pressure;BME280_temperature;BME280_humidity;BME280_pressure;Samples;Min_cycle;Max_cycle;Signal;HPM_P1;HPM_P2
2022/09/14 00:02:20;;;;;;;8.40;3.65;;;11.50;99.90;;;;;;5046656;28;20045;-64
2022/09/14 00:04:45;;;;;;;4.93;3.00;;;11.50;99.90;;;;;;5043674;28;20036;-65
2022/09/14 00:07:11;;;;;;;7.70;3.45;;;11.60;99.90;;;;;;5043938;28;20032;-65
2022/09/14 00:09:36;;;;;;;4.80;2.80;;;11.50;99.90;;;;;;5049237;28;20100;-65
2022/09/14 00:12:02;;;;;;;3.85;2.63;;;11.40;99.90;;;;;;5051151;28;20044;-65
2022/09/14 00:14:27;;;;;;;2.78;2.05;;;11.30;99.90;;;;;;5044203;28;20525;-65
2022/09/14 00:16:53;;;;;;;2.92;2.05;;;11.30;99.90;;;;;;5045730;28;20036;-65
2022/09/14 00:19:22;;;;;;;5.18;2.70;;;11.30;99.90;;;;;;5041380;28;20036;-64
2022/09/14 00:21:58;;;;;;;5.10;3.55;;;11.30;99.90;;;;;;5047035;28;20128;-65
2022/09/14 00:24:25;;;;;;;7.00;4.40;;;11.20;99.90;;;;;;5059291;28;20059;-64
2022/09/14 00:26:52;;;;;;;10.25;4.57;;;11.20;99.90;;;;;;5045357;28;20064;-65
2022/09/14 00:29:19;;;;;;;10.55;5.38;;;11.20;99.90;;;;;;5042419;28;20514;-65
2022/09/14 00:31:44;;;;;;;12.85;6.07;;;11.20;99.90;;;;;;5056460;28;20549;-65
2022/09/14 00:34:13;;;;;;;15.57;6.90;;;11.20;99.90;;;;;;5043770;28;20076;-65
2022/09/14 00:36:42;;;;;;;20.80;8.38;;;11.20;99.90;;;;;;5042170;28;20187;-64
2022/09/14 00:39:08;;;;;;;31.42;13.40;;;11.40;99.90;;;;;;5041700;28;20436;-64
2022/09/14 00:41:36;;;;;;;25.83;11.05;;;11.30;99.90;;;;;;5045247;28;20406;-65
2022/09/14 00:44:11;;;;;;;16.25;4.95;;;11.20;99.90;;;;;;5039399;28;20509;-65
2022/09/14 00:46:37;;;;;;;9.32;3.80;;;11.20;99.90;;;;;;5039869;28;20567;-65
2022/09/14 00:49:07;;;;;;;10.30;4.18;;;11.20;99.90;;;;;;5043972;28;20036;-65
2022/09/14 00:51:34;;;;;;;11.95;6.13;;;11.10;99.90;;;;;;5042031;28;20029;-65
2022/09/14 00:54:05;;;;;;;8.57;4.18;;;11.20;99.90;;;;;;5041989;28;20040;-65
2022/09/14 00:56:31;;;;;;;7.60;3.92;;;11.20;99.90;;;;;;5043270;28;20055;-65
2022/09/14 00:58:58;;;;;;;8.38;3.83;;;11.10;99.90;;;;;;5050949;28;20048;-65
2022/09/14 01:01:25;;;;;;;8.07;3.90;;;11.20;99.90;;;;;;5066650;28;20041;-64
2022/09/14 01:03:51;;;;;;;11.07;4.60;;;11.20;99.90;;;;;;5065262;28;20082;-64
2022/09/14 01:06:40;;;;;;;15.20;6.20;;;11.20;99.90;;;;;;5060945;28;20036;-64
2022/09/14 01:09:34;;;;;;;8.32;4.35;;;11.30;99.90;;;;;;5056060;28;20418;-64
2022/09/14 01:12:09;;;;;;;10.80;4.68;;;11.30;99.90;;;;;;5052361;28;20586;-65
2022/09/14 01:15:07;;;;;;;11.57;4.68;;;11.40;99.90;;;;;;5073703;28;20087;-65
2022/09/14 01:17:38;;;;;;;10.05;4.65;;;11.20;99.90;;;;;;5070610;28;20052;-66
2022/09/14 01:20:14;;;;;;;9.15;4.20;;;11.20;99.90;;;;;;5056953;28;20044;-65
2022/09/14 01:23:17;;;;;;;9.73;4.45;;;11.30;99.90;;;;;;5064594;28;20043;-65
2022/09/14 01:25:55;;;;;;;5.22;2.92;;;11.30;99.90;;;;;;5055937;28;20068;-65
2022/09/14 01:28:56;;;;;;;3.05;2.28;;;11.40;99.90;;;;;;5052665;28;20040;-65
2022/09/14 01:31:37;;;;;;;7.93;3.33;;;11.40;99.90;;;;;;5044111;28;20487;-65
2022/09/14 01:34:14;;;;;;;5.85;3.72;;;11.30;99.90;;;;;;5050362;28;20102;-66
2022/09/14 01:36:42;;;;;;;7.97;3.63;;;11.30;99.90;;;;;;5059852;28;20120;-66
2022/09/14 01:39:09;;;;;;;10.85;5.00;;;11.30;99.90;;;;;;5051760;28;20059;-66
2022/09/14 01:41:35;;;;;;;8.68;4.68;;;11.20;99.90;;;;;;5055304;28;20044;-65
2022/09/14 01:44:12;;;;;;;9.20;3.42;;;11.20;99.90;;;;;;5053947;28;20098;-66
2022/09/14 01:46:52;;;;;;;9.57;3.80;;;11.20;99.90;;;;;;5063387;28;20071;-65
2022/09/14 01:49:37;;;;;;;7.10;3.50;;;11.10;99.90;;;;;;5045412;28;20036;-66
2022/09/14 01:52:14;;;;;;;9.38;3.53;;;11.20;99.90;;;;;;5066359;28;20041;-66
2022/09/14 01:54:58;;;;;;;8.05;3.53;;;11.10;99.90;;;;;;5067746;28;20364;-66
2022/09/14 01:57:30;;;;;;;7.03;3.78;;;11.20;99.90;;;;;;5057676;28;20483;-66
2022/09/14 02:00:01;;;;;;;5.90;3.78;;;11.00;99.90;;;;;;5055011;28;20044;-66
2022/09/14 02:02:33;;;;;;;16.67;3.30;;;11.10;99.90;;;;;;5052904;28;20033;-66
2022/09/14 02:05:26;;;;;;;8.43;3.30;;;11.00;99.90;;;;;;5051749;28;20048;-66
2022/09/14 02:07:52;;;;;;;6.55;3.80;;;11.10;99.90;;;;;;5032591;28;20048;-65
2022/09/14 02:10:18;;;;;;;5.53;3.75;;;11.00;99.90;;;;;;5052314;28;20033;-66
2022/09/14 02:12:44;;;;;;;6.07;3.83;;;11.00;99.90;;;;;;5054218;28;20044;-66
2022/09/14 02:15:12;;;;;;;7.35;3.20;;;11.00;99.90;;;;;;5052451;28;20057;-65
2022/09/14 02:17:38;;;;;;;6.65;3.95;;;10.90;99.90;;;;;;5057301;28;20100;-65
2022/09/14 02:20:08;;;;;;;8.63;3.97;;;10.80;99.90;;;;;;5048295;28;20056;-66
2022/09/14 02:22:34;;;;;;;6.10;4.10;;;10.90;99.90;;;;;;5052529;28;20044;-66
2022/09/14 02:25:00;;;;;;;8.43;3.85;;;10.80;99.90;;;;;;5066230;28;20041;-66
2022/09/14 02:27:26;;;;;;;8.95;3.70;;;10.90;99.90;;;;;;5060156;28;20119;-66
2022/09/14 02:29:52;;;;;;;7.63;4.38;;;10.90;99.90;;;;;;5067568;28;20115;-66
2022/09/14 02:32:59;;;;;;;10.68;5.07;;;10.90;99.90;;;;;;5055557;28;20039;-66
2022/09/14 02:35:39;;;;;;;8.38;4.78;;;11.00;99.90;;;;;;5046239;28;20044;-66
2022/09/14 02:38:19;;;;;;;7.85;4.35;;;11.10;99.90;;;;;;5048245;28;20120;-66
2022/09/14 02:41:03;;;;;;;7.30;3.78;;;11.00;99.90;;;;;;5060736;28;20041;-66
2022/09/14 02:43:43;;;;;;;5.53;2.78;;;11.20;99.90;;;;;;5057380;28;20044;-67
2022/09/14 02:46:17;;;;;;;7.13;3.38;;;11.10;99.90;;;;;;5070688;28;20037;-67
2022/09/14 02:49:12;;;;;;;10.43;4.38;;;11.10;99.90;;;;;;5057274;28;20028;-66
2022/09/14 02:51:55;;;;;;;7.15;3.55;;;11.20;99.90;;;;;;5056388;28;20040;-66
2022/09/14 02:54:34;;;;;;;7.45;3.53;;;11.20;99.90;;;;;;5048388;28;20064;-65
2022/09/14 02:57:03;;;;;;;6.20;3.50;;;11.20;99.90;;;;;;5075156;28;20105;-65
2022/09/14 02:59:29;;;;;;;8.90;4.07;;;11.20;99.90;;;;;;5058033;28;20544;-66
2022/09/14 03:01:57;;;;;;;10.70;5.78;;;11.20;99.90;;;;;;5051354;28;20037;-67
2022/09/14 03:04:23;;;;;;;6.43;3.35;;;11.20;99.90;;;;;;5054489;28;20069;-67
2022/09/14 03:06:48;;;;;;;6.55;2.80;;;11.20;99.90;;;;;;5052984;28;20118;-66
2022/09/14 03:09:14;;;;;;;4.88;2.60;;;11.00;99.90;;;;;;5055501;28;20032;-67
2022/09/14 03:11:40;;;;;;;5.50;2.97;;;11.00;99.90;;;;;;5055443;28;20450;-66
2022/09/14 03:14:05;;;;;;;6.50;3.15;;;11.00;99.90;;;;;;5058747;28;20047;-66
2022/09/14 03:16:31;;;;;;;7.85;3.90;;;11.00;99.90;;;;;;5041796;28;20109;-66
2022/09/14 03:18:57;;;;;;;7.93;4.40;;;11.00;99.90;;;;;;5053549;28;20417;-65
2022/09/14 03:21:22;;;;;;;9.27;4.55;;;11.00;99.90;;;;;;5059657;28;20040;-65
2022/09/14 03:23:50;;;;;;;11.45;5.32;;;11.00;99.90;;;;;;5069086;28;20045;-65
2022/09/14 03:26:21;;;;;;;8.60;5.18;;;11.10;99.90;;;;;;5051113;28;20044;-66
2022/09/14 03:28:55;;;;;;;15.32;7.05;;;11.00;99.90;;;;;;5061486;28;20087;-66
2022/09/14 03:31:21;;;;;;;10.32;4.50;;;11.10;99.90;;;;;;5051490;28;20886;-67
2022/09/14 03:33:51;;;;;;;10.93;3.28;;;11.10;99.90;;;;;;5057760;28;20041;-67
2022/09/14 03:36:18;;;;;;;12.75;4.85;;;11.30;99.90;;;;;;5053438;28;20036;-67
2022/09/14 03:38:45;;;;;;;10.73;4.63;;;11.10;99.90;;;;;;5060191;28;20043;-66
2022/09/14 03:41:11;;;;;;;12.05;5.32;;;11.20;99.90;;;;;;5044752;28;20486;-66
2022/09/14 03:43:37;;;;;;;11.38;4.93;;;11.20;99.90;;;;;;5044766;28;20043;-67
2022/09/14 03:46:07;;;;;;;14.18;6.15;;;11.30;99.90;;;;;;5054072;28;20037;-68
2022/09/14 03:48:33;;;;;;;8.43;5.22;;;11.20;99.90;;;;;;5050532;28;20534;-69
2022/09/14 03:51:00;;;;;;;11.52;5.65;;;11.20;99.90;;;;;;5070790;28;20040;-68
2022/09/14 03:53:26;;;;;;;13.70;6.30;;;11.40;99.90;;;;;;5055466;28;20036;-68
2022/09/14 03:55:52;;;;;;;11.77;6.63;;;11.40;99.90;;;;;;5053170;28;20258;-68
2022/09/14 03:58:18;;;;;;;15.68;7.65;;;11.30;99.90;;;;;;5047708;28;20041;-68
2022/09/14 04:00:43;;;;;;;20.75;8.57;;;11.40;99.90;;;;;;5057630;28;20463;-68
2022/09/14 04:03:09;;;;;;;21.10;7.82;;;11.40;99.90;;;;;;5059367;28;20029;-68
2022/09/14 04:05:34;;;;;;;11.15;6.07;;;11.40;99.90;;;;;;5061747;28;20498;-67
2022/09/14 04:08:00;;;;;;;10.85;6.45;;;11.60;99.90;;;;;;5055944;28;20273;-69
2022/09/14 04:10:26;;;;;;;10.05;6.18;;;11.60;99.90;;;;;;5059481;28;20787;-68
2022/09/14 04:12:52;;;;;;;13.43;6.13;;;11.50;99.90;;;;;;5041976;28;20036;-67
2022/09/14 04:15:18;;;;;;;10.40;5.72;;;11.40;99.90;;;;;;5039671;28;20123;-67
2022/09/14 04:17:43;;;;;;;12.20;6.72;;;11.40;99.90;;;;;;5052300;28;20413;-67
2022/09/14 04:20:09;;;;;;;14.27;6.97;;;11.30;99.90;;;;;;5051648;28;20395;-66
2022/09/14 04:22:35;;;;;;;15.20;7.30;;;11.30;99.90;;;;;;5055680;28;20052;-66
2022/09/14 04:25:01;;;;;;;12.60;7.07;;;11.40;99.90;;;;;;5055882;28;20032;-66
2022/09/14 04:27:26;;;;;;;11.90;6.60;;;11.50;99.90;;;;;;5060462;28;20067;-66
2022/09/14 04:29:52;;;;;;;11.32;6.20;;;11.50;99.90;;;;;;5053681;28;20063;-66
2022/09/14 04:32:18;;;;;;;12.57;5.50;;;11.30;99.90;;;;;;5057144;28;20040;-66
2022/09/14 04:34:43;;;;;;;7.65;4.68;;;11.40;99.90;;;;;;5054819;28;20503;-66
2022/09/14 04:37:09;;;;;;;8.82;5.15;;;11.50;99.90;;;;;;5058666;28;20044;-67
2022/09/14 04:39:35;;;;;;;10.85;4.85;;;11.40;99.90;;;;;;5054006;28;20538;-66
2022/09/14 04:42:00;;;;;;;9.25;5.20;;;11.40;99.90;;;;;;5055522;28;20072;-66
2022/09/14 04:44:26;;;;;;;10.02;4.95;;;11.50;99.90;;;;;;5055752;28;20433;-66
2022/09/14 04:46:51;;;;;;;8.55;5.25;;;11.50;99.90;;;;;;5044186;28;20058;-66
2022/09/14 04:49:17;;;;;;;12.55;6.07;;;11.50;99.90;;;;;;5055556;28;20037;-66
2022/09/14 04:51:43;;;;;;;15.95;7.18;;;11.50;99.90;;;;;;5050203;28;20383;-67
2022/09/14 04:54:13;;;;;;;11.43;6.32;;;11.60;99.90;;;;;;5056196;28;20028;-66
2022/09/14 04:56:39;;;;;;;12.45;6.75;;;11.60;99.90;;;;;;5058542;28;20098;-66
2022/09/14 04:59:05;;;;;;;10.88;6.78;;;11.50;99.90;;;;;;5053598;28;20471;-66
2022/09/14 05:01:34;;;;;;;14.65;6.95;;;11.60;99.90;;;;;;5049246;28;20152;-67
2022/09/14 05:04:00;;;;;;;14.20;7.07;;;11.50;99.90;;;;;;5052142;28;20064;-66
2022/09/14 05:06:28;;;;;;;12.43;6.90;;;11.60;99.90;;;;;;5049225;28;20399;-66
2022/09/14 05:08:55;;;;;;;15.18;8.55;;;11.60;99.90;;;;;;5058266;28;20045;-66
2022/09/14 05:11:23;;;;;;;16.85;9.10;;;11.60;99.90;;;;;;5057313;28;20055;-67
2022/09/14 05:13:50;;;;;;;17.10;7.80;;;11.60;99.90;;;;;;5053623;28;20293;-66
2022/09/14 05:16:27;;;;;;;16.15;7.65;;;11.70;99.90;;;;;;5050199;28;20123;-66
2022/09/14 05:18:54;;;;;;;15.25;7.50;;;11.70;99.90;;;;;;5058641;28;21468;-66
2022/09/14 05:21:21;;;;;;;12.38;7.05;;;11.70;99.90;;;;;;5055015;28;20051;-67
2022/09/14 05:23:51;;;;;;;10.93;6.25;;;11.60;99.90;;;;;;5052804;28;20045;-66
2022/09/14 05:26:17;;;;;;;12.45;7.00;;;11.70;99.90;;;;;;5050183;28;20029;-66
2022/09/14 05:28:42;;;;;;;14.48;7.40;;;11.60;99.90;;;;;;5049236;28;20387;-66
2022/09/14 05:31:11;;;;;;;13.30;7.85;;;11.80;99.90;;;;;;5053781;28;20040;-66
2022/09/14 05:33:37;;;;;;;14.32;7.22;;;11.90;99.90;;;;;;5051959;28;20041;-66
2022/09/14 05:36:05;;;;;;;13.15;7.50;;;11.90;99.90;;;;;;5054043;28;20040;-66
2022/09/14 05:38:32;;;;;;;12.88;7.57;;;11.70;99.90;;;;;;5057339;28;20036;-66
2022/09/14 05:40:58;;;;;;;13.98;7.38;;;11.80;99.90;;;;;;5070943;28;20087;-66
2022/09/14 05:43:24;;;;;;;10.75;7.32;;;11.80;99.90;;;;;;5052310;28;20068;-66
2022/09/14 05:45:50;;;;;;;12.45;7.40;;;11.80;99.90;;;;;;5059897;28;20049;-66
2022/09/14 05:48:16;;;;;;;13.90;7.78;;;12.00;99.90;;;;;;5055811;28;20491;-66
2022/09/14 05:50:42;;;;;;;15.90;7.97;;;12.00;99.90;;;;;;5060514;28;20032;-66
2022/09/14 05:53:08;;;;;;;14.70;7.97;;;12.10;99.90;;;;;;5055753;28;20032;-66
2022/09/14 05:55:34;;;;;;;13.20;7.45;;;11.90;99.90;;;;;;5057590;28;20040;-66
2022/09/14 05:57:59;;;;;;;13.75;7.20;;;12.10;99.90;;;;;;5057517;28;20122;-66
2022/09/14 06:00:26;;;;;;;12.50;6.95;;;12.10;99.90;;;;;;5054261;28;20055;-66
2022/09/14 06:02:53;;;;;;;13.73;6.88;;;12.20;99.90;;;;;;5048424;28;20040;-66
2022/09/14 06:05:20;;;;;;;12.43;7.60;;;12.10;99.90;;;;;;5048483;28;20576;-66
2022/09/14 06:07:51;;;;;;;12.45;7.35;;;12.20;99.90;;;;;;5047044;28;20044;-66
2022/09/14 06:10:16;;;;;;;15.68;7.93;;;12.30;99.90;;;;;;5034958;28;20060;-66
2022/09/14 06:12:42;;;;;;;14.88;7.53;;;12.20;99.90;;;;;;5030412;28;20037;-66
2022/09/14 06:15:09;;;;;;;16.15;8.73;;;12.30;99.90;;;;;;5031916;28;20033;-66
2022/09/14 06:17:35;;;;;;;14.98;8.65;;;12.30;99.90;;;;;;5049030;28;20132;-66
2022/09/14 06:20:02;;;;;;;14.63;8.10;;;12.40;99.90;;;;;;5054800;28;20056;-66
2022/09/14 06:22:27;;;;;;;13.25;8.15;;;12.50;99.90;;;;;;5038790;28;20140;-66
2022/09/14 06:24:53;;;;;;;14.63;8.32;;;12.40;99.90;;;;;;5044814;28;20144;-66
2022/09/14 06:27:19;;;;;;;18.95;9.13;;;12.50;99.90;;;;;;5052983;28;20044;-66
2022/09/14 06:29:44;;;;;;;17.73;9.50;;;12.50;99.90;;;;;;5052356;28;20136;-65
2022/09/14 06:32:10;;;;;;;14.43;7.90;;;12.50;99.90;;;;;;5044337;28;20041;-66
2022/09/14 06:34:35;;;;;;;17.08;8.07;;;12.70;99.90;;;;;;5054593;28;20043;-65
2022/09/14 06:37:01;;;;;;;14.38;7.93;;;12.60;99.90;;;;;;5059122;28;20045;-65
2022/09/14 06:39:27;;;;;;;16.05;8.63;;;12.70;99.90;;;;;;5058115;28;20049;-65
2022/09/14 06:41:52;;;;;;;16.85;9.43;;;12.70;99.90;;;;;;5051489;28;20475;-65
2022/09/14 06:44:18;;;;;;;15.43;9.18;;;13.00;99.90;;;;;;5056134;28;20044;-65
2022/09/14 06:46:44;;;;;;;17.75;8.95;;;13.00;99.90;;;;;;5052379;28;20086;-64
2022/09/14 06:49:12;;;;;;;19.17;9.15;;;12.90;99.90;;;;;;5055523;28;20045;-65
2022/09/14 06:51:41;;;;;;;14.43;8.77;;;13.10;99.90;;;;;;5057786;28;20068;-65
2022/09/14 06:54:08;;;;;;;14.75;9.25;;;13.10;99.90;;;;;;5055669;28;20602;-65
2022/09/14 06:56:37;;;;;;;15.43;8.98;;;13.10;99.90;;;;;;5049793;28;20675;-65
2022/09/14 06:59:04;;;;;;;15.57;8.25;;;13.10;99.90;;;;;;5052325;28;20119;-65
2022/09/14 07:01:30;;;;;;;14.80;7.80;;;13.20;99.90;;;;;;5051704;28;20049;-65
2022/09/14 07:03:57;;;;;;;14.38;7.97;;;13.20;99.90;;;;;;5055404;28;20080;-65
2022/09/14 07:06:25;;;;;;;10.40;7.38;;;13.40;99.90;;;;;;5044708;28;20119;-65
2022/09/14 07:08:51;;;;;;;13.43;7.60;;;13.30;99.90;;;;;;5063482;28;20037;-64
2022/09/14 07:11:19;;;;;;;15.00;8.10;;;13.50;99.90;;;;;;5043939;28;20032;-65
2022/09/14 07:13:46;;;;;;;15.40;7.78;;;13.60;99.90;;;;;;5067585;28;20041;-65
2022/09/14 07:16:12;;;;;;;19.50;8.70;;;13.70;99.90;;;;;;5049528;28;20128;-64
2022/09/14 07:18:38;;;;;;;13.30;8.45;;;13.60;99.90;;;;;;5052447;28;20119;-64
2022/09/14 07:21:09;;;;;;;12.75;7.78;;;13.90;99.90;;;;;;5051018;28;20538;-65
2022/09/14 07:23:36;;;;;;;15.38;8.02;;;13.80;99.90;;;;;;5051566;28;20047;-65
2022/09/14 07:26:08;;;;;;;10.80;7.68;;;14.00;99.90;;;;;;5047248;28;20041;-65
2022/09/14 07:28:35;;;;;;;12.40;7.78;;;14.10;99.90;;;;;;5042125;28;20069;-65
2022/09/14 07:31:02;;;;;;;13.40;7.38;;;14.30;99.90;;;;;;5030620;28;20052;-65
2022/09/14 07:33:28;;;;;;;16.42;7.47;;;14.40;99.90;;;;;;5018576;28;20076;-66
2022/09/14 07:35:54;;;;;;;16.85;8.73;;;14.50;99.90;;;;;;5048384;28;20045;-65
2022/09/14 07:38:19;;;;;;;19.23;8.98;;;14.50;99.90;;;;;;5049581;28;20037;-65
2022/09/14 07:40:45;;;;;;;14.27;8.32;;;14.60;99.90;;;;;;5043570;28;20047;-65
2022/09/14 07:43:11;;;;;;;13.35;8.07;;;14.70;99.90;;;;;;5039239;28;20075;-65
2022/09/14 07:45:37;;;;;;;17.55;8.55;;;14.80;99.90;;;;;;5050891;28;20041;-64
2022/09/14 07:48:04;;;;;;;14.85;7.93;;;15.00;99.90;;;;;;5046193;28;20079;-64
2022/09/14 07:50:30;;;;;;;13.70;7.90;;;15.00;99.90;;;;;;5057240;28;20076;-65
2022/09/14 07:52:56;;;;;;;11.82;6.55;;;15.00;99.90;;;;;;5050155;28;20037;-65
2022/09/14 07:55:21;;;;;;;11.48;6.20;;;15.10;99.90;;;;;;5050569;28;20566;-65
2022/09/14 07:57:47;;;;;;;9.85;5.88;;;15.20;99.90;;;;;;5046732;28;20045;-65
2022/09/14 08:00:13;;;;;;;13.70;6.55;;;15.40;99.90;;;;;;5051061;28;20131;-65
2022/09/14 08:02:39;;;;;;;13.15;5.75;;;15.30;99.90;;;;;;5060400;28;21419;-63
2022/09/14 08:05:05;;;;;;;13.07;6.07;;;15.60;99.90;;;;;;5066593;28;20036;-64
2022/09/14 08:07:31;;;;;;;10.25;5.07;;;15.60;99.90;;;;;;5053009;28;20037;-64
2022/09/14 08:09:57;;;;;;;11.43;5.15;;;15.70;99.90;;;;;;5056751;28;20174;-64
2022/09/14 08:12:23;;;;;;;14.10;5.30;;;15.80;99.90;;;;;;5057239;28;20175;-64
2022/09/14 08:14:51;;;;;;;9.82;3.70;;;15.80;99.90;;;;;;5066145;28;20028;-68
2022/09/14 08:17:16;;;;;;;8.25;4.10;;;16.00;99.90;;;;;;5054012;28;20040;-67
2022/09/14 08:19:42;;;;;;;6.32;3.78;;;16.10;99.90;;;;;;5051640;28;20407;-65
2022/09/14 08:22:08;;;;;;;10.95;3.88;;;16.10;99.90;;;;;;5044778;28;20129;-66
2022/09/14 08:24:33;;;;;;;9.00;3.10;;;16.10;99.90;;;;;;5050792;28;20045;-66
2022/09/14 08:26:59;;;;;;;6.95;2.90;;;16.30;99.90;;;;;;5034289;28;20033;-65
2022/09/14 08:29:25;;;;;;;10.05;3.08;;;16.40;99.90;;;;;;5034112;28;20044;-65
2022/09/14 08:31:51;;;;;;;7.30;3.28;;;16.30;99.90;;;;;;5041874;28;20045;-65
2022/09/14 08:34:18;;;;;;;7.80;2.90;;;16.50;99.90;;;;;;5060016;28;20037;-65
2022/09/14 08:36:46;;;;;;;7.10;2.75;;;16.50;99.90;;;;;;5046854;28;20037;-65
2022/09/14 08:39:14;;;;;;;5.30;2.83;;;16.60;99.90;;;;;;5049503;28;20106;-65
2022/09/14 08:41:44;;;;;;;7.70;2.90;;;16.60;99.90;;;;;;5048422;28;20044;-66
2022/09/14 08:44:10;;;;;;;7.43;2.10;;;16.70;99.90;;;;;;5049061;28;20064;-66
2022/09/14 08:46:53;;;;;;;6.60;2.00;;;16.80;99.90;;;;;;5040225;28;20126;-66
2022/09/14 08:49:46;;;;;;;8.98;1.30;;;16.90;99.90;;;;;;5044838;28;20406;-65
2022/09/14 08:52:29;;;;;;;3.55;1.40;;;16.90;99.90;;;;;;5056540;28;20037;-65
2022/09/14 08:54:57;;;;;;;8.73;1.60;;;17.00;99.90;;;;;;5052338;28;20041;-65
2022/09/14 08:57:38;;;;;;;6.35;1.23;;;17.00;99.90;;;;;;5060992;28;20044;-65
2022/09/14 09:00:19;;;;;;;4.43;1.00;;;17.10;99.90;;;;;;5049292;28;20395;-65
2022/09/14 09:02:45;;;;;;;5.70;1.00;;;17.10;99.90;;;;;;5045157;28;20043;-65
2022/09/14 09:05:42;;;;;;;5.75;1.00;;;17.10;99.90;;;;;;5054434;28;20407;-66
2022/09/14 09:08:28;;;;;;;6.22;0.95;;;17.20;99.90;;;;;;5065010;28;20037;-65
2022/09/14 09:10:57;;;;;;;7.40;1.20;;;17.20;99.90;;;;;;5050289;28;20562;-65
2022/09/14 09:13:27;;;;;;;7.60;0.95;;;17.30;99.90;;;;;;5048463;28;20052;-65
2022/09/14 09:15:58;;;;;;;5.38;1.33;;;17.30;99.90;;;;;;5056875;28;20059;-65
2022/09/14 09:18:39;;;;;;;4.72;1.00;;;17.30;99.90;;;;;;5042061;28;20147;-65
2022/09/14 09:21:34;;;;;;;3.03;0.93;;;17.40;99.90;;;;;;5067849;28;20131;-67
2022/09/14 09:24:23;;;;;;;5.38;1.00;;;17.40;99.90;;;;;;5053254;28;20053;-66
2022/09/14 09:26:49;;;;;;;4.75;1.00;;;17.60;99.90;;;;;;5048470;28;20089;-65
2022/09/14 09:29:15;;;;;;;4.45;0.80;;;17.70;99.90;;;;;;5058480;28;20041;-66
2022/09/14 09:31:46;;;;;;;2.85;0.80;;;17.80;99.90;;;;;;5056472;28;20051;-66
2022/09/14 09:34:20;;;;;;;5.93;1.08;;;18.00;99.90;;;;;;5043778;28;20411;-67
2022/09/14 09:36:48;;;;;;;3.30;0.90;;;18.10;99.90;;;;;;5047223;28;20175;-67
2022/09/14 09:39:14;;;;;;;3.72;0.75;;;18.20;99.90;;;;;;5049984;28;20411;-66
2022/09/14 09:42:08;;;;;;;4.50;0.85;;;18.30;99.90;;;;;;5064370;28;20041;-66
2022/09/14 09:44:53;;;;;;;9.68;0.80;;;18.30;99.90;;;;;;5043583;28;20061;-66
2022/09/14 09:47:27;;;;;;;3.17;0.82;;;18.30;99.90;;;;;;5045673;28;20438;-67
2022/09/14 09:49:59;;;;;;;4.45;0.68;;;18.40;99.90;;;;;;5051871;28;20127;-67
2022/09/14 09:52:25;;;;;;;;;;;18.40;99.90;;;;;;5056824;28;20108;-66
2022/09/14 09:54:53;;;;;;;3.88;0.70;;;18.50;99.90;;;;;;5052364;28;20359;-66
2022/09/14 09:57:31;;;;;;;2.40;0.40;;;18.50;99.90;;;;;;5047390;28;20049;-67
2022/09/14 10:00:17;;;;;;;2.00;0.70;;;18.50;99.90;;;;;;5056245;28;20055;-67
2022/09/14 10:02:43;;;;;;;1.98;0.47;;;18.50;99.90;;;;;;5040931;28;20402;-68
2022/09/14 10:05:22;;;;;;;3.28;0.60;;;18.50;99.90;;;;;;5051283;28;20028;-68
2022/09/14 10:07:48;;;;;;;3.08;0.60;;;18.50;99.90;;;;;;5050131;28;20044;-68
2022/09/14 10:10:18;;;;;;;4.28;0.52;;;18.50;99.90;;;;;;5066640;28;20041;-67
2022/09/14 10:12:50;;;;;;;2.40;0.60;;;18.50;99.90;;;;;;5044267;28;20045;-68
2022/09/14 10:15:21;;;;;;;5.78;0.77;;;18.50;99.90;;;;;;5042257;28;20053;-68
2022/09/14 10:18:01;;;;;;;4.75;0.60;;;18.50;99.90;;;;;;5048612;28;20372;-67
2022/09/14 10:20:27;;;;;;;2.40;0.60;;;18.50;99.90;;;;;;5048101;28;20483;-68
2022/09/14 10:22:53;;;;;;;5.90;0.80;;;18.50;99.90;;;;;;5046644;28;20041;-68
2022/09/14 10:25:21;;;;;;;2.85;0.88;;;18.60;99.90;;;;;;5050045;28;20106;-68
2022/09/14 10:27:57;;;;;;;4.55;1.13;;;18.60;99.90;;;;;;5073207;28;20048;-66
2022/09/14 10:30:25;;;;;;;5.82;0.80;;;18.80;99.90;;;;;;5067159;28;20655;-66
2022/09/14 10:32:58;;;;;;;3.20;0.60;;;18.80;99.90;;;;;;5053657;28;20041;-67
2022/09/14 10:35:39;;;;;;;1.80;0.65;;;18.90;99.90;;;;;;5074030;28;20138;-68
2022/09/14 10:38:16;;;;;;;4.95;0.50;;;19.10;99.90;;;;;;5069261;28;20075;-67
2022/09/14 10:40:46;;;;;;;4.30;0.70;;;19.10;99.90;;;;;;5071637;28;20048;-67
2022/09/14 10:43:34;;;;;;;6.28;0.80;;;19.20;99.90;;;;;;5055051;28;20097;-67
2022/09/14 10:46:03;;;;;;;3.80;0.60;;;19.40;99.90;;;;;;5044773;28;20430;-67
2022/09/14 10:49:06;;;;;;;4.15;0.57;;;19.50;99.90;;;;;;5050167;28;21492;-67
2022/09/14 10:51:44;;;;;;;1.98;0.60;;;19.50;99.90;;;;;;5062070;28;20049;-66
2022/09/14 10:54:49;;;;;;;2.17;0.60;;;19.40;99.90;;;;;;5042759;28;20045;-68
2022/09/14 10:57:32;;;;;;;1.70;0.60;;;19.30;99.90;;;;;;5071594;28;20932;-68
2022/09/14 11:00:11;;;;;;;4.55;0.60;;;19.20;99.90;;;;;;5053912;28;20037;-68
2022/09/14 11:03:18;;;;;;;4.95;1.05;;;19.10;99.90;;;;;;5059857;28;20064;-68
2022/09/14 11:05:57;;;;;;;4.45;0.80;;;19.00;99.90;;;;;;5068411;28;20450;-68
2022/09/14 11:08:42;;;;;;;1.55;0.57;;;18.90;99.90;;;;;;5055895;28;20078;-68
2022/09/14 11:11:32;;;;;;;3.20;0.82;;;18.80;99.90;;;;;;5068697;28;20028;-68
2022/09/14 11:14:03;;;;;;;6.30;0.60;;;18.70;99.90;;;;;;5044554;28;20056;-68
2022/09/14 11:17:00;;;;;;;1.83;0.50;;;18.60;99.90;;;;;;5060988;28;20438;-68
2022/09/14 11:19:50;;;;;;;3.85;0.85;;;18.60;99.90;;;;;;5071454;28;20045;-68
2022/09/14 11:22:21;;;;;;;2.75;0.60;;;18.60;99.90;;;;;;5052620;28;20044;-68
2022/09/14 11:24:59;;;;;;;4.68;0.73;;;18.60;99.90;;;;;;5052719;28;20056;-69
2022/09/14 11:27:50;;;;;;;3.17;0.57;;;18.60;99.90;;;;;;5056963;28;20519;-68
2022/09/14 11:30:21;;;;;;;2.65;0.63;;;18.70;99.90;;;;;;5072709;28;20044;-67
2022/09/14 11:33:06;;;;;;;4.28;0.80;;;18.70;99.90;;;;;;5052114;28;20076;-68
2022/09/14 11:35:44;;;;;;;3.25;0.80;;;18.80;99.90;;;;;;5058574;28;20044;-69
2022/09/14 11:38:20;;;;;;;3.33;1.17;;;19.00;99.90;;;;;;5060345;28;20143;-69
2022/09/14 11:40:53;;;;;;;1.75;0.60;;;19.10;99.90;;;;;;5052355;28;20046;-67
2022/09/14 11:43:36;;;;;;;3.80;0.57;;;19.20;99.90;;;;;;5057545;28;20044;-67
2022/09/14 11:46:16;;;;;;;5.20;0.90;;;19.40;99.90;;;;;;5052770;28;20430;-69
2022/09/14 11:48:59;;;;;;;3.17;0.82;;;19.50;99.90;;;;;;5050123;28;20083;-66
2022/09/14 11:51:49;;;;;;;4.22;0.85;;;19.40;99.90;;;;;;5055768;28;20421;-67
2022/09/14 11:54:20;;;;;;;3.47;0.70;;;19.60;99.90;;;;;;5067428;28;20410;-68
2022/09/14 11:56:49;;;;;;;1.75;0.82;;;19.70;99.90;;;;;;5053443;28;20478;-68
2022/09/14 11:59:36;;;;;;;3.67;1.08;;;19.90;99.90;;;;;;5051902;28;20123;-68
2022/09/14 12:02:23;;;;;;;3.00;0.70;;;19.90;99.90;;;;;;5055508;28;20044;-69
2022/09/14 12:05:04;;;;;;;3.70;0.82;;;20.10;99.90;;;;;;5060077;28;20049;-67
2022/09/14 12:07:41;;;;;;;3.08;0.80;;;20.00;99.90;;;;;;5057993;28;20396;-67
2022/09/14 12:10:12;;;;;;;12.23;1.02;;;19.80;99.90;;;;;;5068990;28;20090;-67
2022/09/14 12:12:40;;;;;;;6.80;1.25;;;19.70;99.90;;;;;;5052480;28;20462;-68
2022/09/14 12:15:23;;;;;;;4.82;1.00;;;19.60;99.90;;;;;;5059883;28;20093;-67
2022/09/14 12:18:19;;;;;;;3.28;0.80;;;19.50;99.90;;;;;;5047938;28;20083;-68
2022/09/14 12:20:51;;;;;;;6.90;1.00;;;19.50;99.90;;;;;;5061071;28;20479;-69
2022/09/14 12:23:28;;;;;;;6.18;1.15;;;19.40;99.90;;;;;;5051519;28;20057;-68
2022/09/14 12:26:18;;;;;;;5.43;1.13;;;19.40;99.90;;;;;;5067773;28;20043;-67
2022/09/14 12:28:49;;;;;;;5.95;1.17;;;19.50;99.90;;;;;;5047783;28;20036;-67
2022/09/14 12:31:43;;;;;;;6.18;1.08;;;19.70;99.90;;;;;;5066107;28;20478;-67
2022/09/14 12:34:30;;;;;;;4.28;0.90;;;19.90;99.90;;;;;;5049595;28;20048;-69
2022/09/14 12:37:01;;;;;;;3.63;1.13;;;20.00;99.90;;;;;;5048464;28;20442;-67
2022/09/14 12:39:30;;;;;;;3.75;1.10;;;19.90;99.90;;;;;;5043320;28;20045;-68
2022/09/14 12:41:56;;;;;;;3.35;1.00;;;19.80;99.90;;;;;;5030465;28;20073;-68
2022/09/14 12:44:39;;;;;;;4.45;1.00;;;19.70;99.90;;;;;;5055744;28;20554;-67
2022/09/14 12:47:23;;;;;;;4.97;1.00;;;19.60;99.90;;;;;;5047556;28;20036;-67
2022/09/14 12:49:49;;;;;;;3.17;0.93;;;19.60;99.90;;;;;;5048942;28;20064;-68
2022/09/14 12:52:46;;;;;;;2.92;1.08;;;19.70;99.90;;;;;;5034945;28;20045;-68
2022/09/14 12:55:41;;;;;;;5.78;1.08;;;19.80;99.90;;;;;;5025829;28;20359;-67
2022/09/14 12:58:19;;;;;;;4.97;1.20;;;20.00;99.90;;;;;;5032025;28;20124;-68
2022/09/14 13:01:23;;;;;;;5.32;1.00;;;20.20;99.90;;;;;;5036149;28;20041;-67
2022/09/14 13:03:53;;;;;;;4.32;0.98;;;20.40;99.90;;;;;;5033815;28;20493;-68
2022/09/14 13:06:20;;;;;;;3.67;1.00;;;20.40;99.90;;;;;;5041377;28;20396;-67
2022/09/14 13:08:49;;;;;;;7.15;1.20;;;20.30;99.90;;;;;;5046673;28;20092;-67